Time;durP1;ratioP1;P1;durP2;ratioP2;P2;SDS_P1;SDS_P2;PMS_P1;PMS_P2;Temp;Humidity;BMP_temperature;BMP_pressure;BME280_temperature;BME280_humidity;BME280_pressure;Samples;Min_cycle;Max_cycle;Signal;HPM_P1;HPM_P2
2023/06/29 04:09:54;;;;;;;5.28;2.90;;;;;;;19.06;68.71;100508.97;5605368;31;79298;-60
2023/06/29 04:12:56;;;;;;;5.20;2.90;;;;;;;19.06;68.71;100508.97;5582654;32;33468;-59
2023/06/29 04:15:58;;;;;;;3.33;2.62;;;;;;;18.52;67.00;100514.34;5582585;31;33602;-60
2023/06/29 04:19:01;;;;;;;4.32;2.70;;;;;;;18.59;63.65;100519.25;5582575;32;34228;-60
2023/06/29 04:22:04;;;;;;;5.30;2.62;;;;;;;18.50;62.74;100506.50;5582487;31;34293;-59
2023/06/29 04:25:06;;;;;;;4.47;2.95;;;;;;;18.57;75.26;100510.63;5582605;31;34254;-60
2023/06/29 04:28:11;;;;;;;5.93;2.80;;;;;;;18.69;69.39;100506.06;5582667;32;34428;-59
2023/06/29 04:31:13;;;;;;;5.07;2.37;;;;;;;18.73;65.44;100501.59;5582529;31;33518;-60
2023/06/29 04:34:17;;;;;;;3.65;2.60;;;;;;;18.82;63.24;100498.00;5583176;32;34205;-60
2023/06/29 04:37:19;;;;;;;5.20;2.72;;;;;;;18.78;63.18;100504.13;5582449;31;33664;-60
2023/06/29 04:40:21;;;;;;;8.88;3.05;;;;;;;18.73;61.94;100507.00;5563557;32;34049;-61
2023/06/29 04:43:24;;;;;;;5.93;2.37;;;;;;;18.76;61.60;100503.62;5563306;32;33649;-60
2023/06/29 04:46:30;;;;;;;5.10;2.47;;;;;;;18.78;65.21;100495.19;5563675;32;33568;-60
2023/06/29 04:49:36;;;;;;;6.18;2.62;;;;;;;18.80;68.28;100501.06;5563351;32;33646;-59
2023/06/29 04:52:40;;;;;;;;;;;;;;;18.94;65.08;100490.72;5563988;32;33643;-60
2023/06/29 04:55:42;;;;;;;4.78;2.35;;;;;;;18.98;61.47;100488.13;5563151;32;34845;-60
2023/06/29 04:58:45;;;;;;;5.75;3.25;;;;;;;19.07;65.33;100488.03;5563317;32;34340;-59
2023/06/29 05:01:47;;;;;;;5.57;2.80;;;;;;;19.13;61.20;100489.41;5563241;32;34253;-60
2023/06/29 05:04:50;;;;;;;5.57;2.65;;;;;;;19.12;61.18;100483.19;5562666;32;33590;-60
2023/06/29 05:07:52;;;;;;;4.40;2.20;;;;;;;19.18;65.34;100492.72;5562643;32;33656;-60
2023/06/29 05:10:54;;;;;;;5.32;2.50;;;;;;;19.42;64.03;100491.19;5563159;32;33622;-60
2023/06/29 05:13:57;;;;;;;3.45;2.05;;;;;;;19.54;63.44;100488.50;5563029;32;33943;-60
2023/06/29 05:16:59;;;;;;;9.00;2.50;;;;;;;19.60;68.18;100492.59;5563078;32;33850;-61
2023/06/29 05:20:03;;;;;;;15.15;2.80;;;;;;;19.79;60.26;100493.97;5555224;32;33250;-61
2023/06/29 05:23:05;;;;;;;4.47;2.40;;;;;;;20.09;63.13;100491.81;5549843;32;34193;-61
2023/06/29 05:26:08;;;;;;;8.13;2.42;;;;;;;20.16;57.43;100481.97;5549571;32;33507;-61
2023/06/29 05:29:15;;;;;;;7.12;2.60;;;;;;;20.38;57.85;100479.88;5549406;32;34206;-61
2023/06/29 05:32:20;;;;;;;5.53;2.45;;;;;;;20.48;55.33;100473.16;5549927;32;33615;-60
2023/06/29 05:35:23;;;;;;;7.03;2.20;;;;;;;20.67;56.71;100476.09;5549566;32;33767;-61
2023/06/29 05:38:29;;;;;;;4.55;2.22;;;;;;;20.82;57.48;100485.44;5548644;32;33961;-61
2023/06/29 05:41:31;;;;;;;4.13;2.20;;;;;;;20.75;55.63;100479.81;5549679;32;33885;-61
2023/06/29 05:44:34;;;;;;;3.92;2.10;;;;;;;20.85;54.17;100487.47;5549660;32;33229;-61
2023/06/29 05:47:36;;;;;;;5.03;2.40;;;;;;;20.92;54.14;100479.50;5549197;32;33747;-61
2023/06/29 05:50:38;;;;;;;3.80;2.37;;;;;;;21.00;54.27;100484.03;5549343;32;34273;-61
2023/06/29 05:53:41;;;;;;;9.13;2.50;;;;;;;21.04;53.04;100479.44;5549183;32;34287;-60
2023/06/29 05:56:43;;;;;;;7.05;2.65;;;;;;;21.16;53.88;100483.25;5549249;32;33649;-61
2023/06/29 05:59:45;;;;;;;6.47;2.85;;;;;;;21.33;53.73;100485.66;5549330;32;34199;-61
2023/06/29 06:02:48;;;;;;;3.58;2.30;;;;;;;21.44;53.45;100492.22;5549480;32;33585;-61
2023/06/29 06:05:51;;;;;;;7.62;2.28;;;;;;;21.54;54.35;100488.97;5549337;32;33223;-60
2023/06/29 06:08:53;;;;;;;20.08;2.92;;;;;;;21.58;52.02;100489.03;5552830;32;33696;-60
2023/06/29 06:11:56;;;;;;;4.75;2.20;;;;;;;21.72;53.17;100492.13;5566828;32;33707;-60
2023/06/29 06:14:58;;;;;;;5.82;2.20;;;;;;;21.74;52.96;100481.66;5565824;32;33965;-60
2023/06/29 06:18:01;;;;;;;4.10;2.67;;;;;;;21.84;51.80;100483.06;5563421;32;33136;-61
2023/06/29 06:21:04;;;;;;;5.90;3.17;;;;;;;21.89;53.31;100482.00;5564894;32;33986;-60
2023/06/29 06:24:06;;;;;;;5.62;2.90;;;;;;;21.94;54.48;100487.97;5562614;32;34022;-60
2023/06/29 06:27:08;;;;;;;13.88;3.22;;;;;;;22.02;55.65;100481.53;5565314;32;34223;-58
2023/06/29 06:30:11;;;;;;;18.42;3.72;;;;;;;22.05;52.82;100488.22;5567886;32;33313;-58
2023/06/29 06:33:15;;;;;;;6.40;2.87;;;;;;;22.11;54.53;100492.25;5566477;32;34723;-59
2023/06/29 06:36:20;;;;;;;8.50;2.62;;;;;;;21.96;52.80;100484.91;5568340;32;33373;-58
2023/06/29 06:39:22;;;;;;;5.70;2.70;;;;;;;22.07;53.66;100496.06;5566642;32;32260;-57
2023/06/29 06:42:25;;;;;;;4.68;2.65;;;;;;;22.10;55.26;100493.41;5568445;32;33692;-59
2023/06/29 06:45:28;;;;;;;7.10;2.92;;;;;;;22.08;52.58;100492.97;5563174;32;33606;-58
2023/06/29 06:48:31;;;;;;;4.22;3.12;;;;;;;22.26;53.28;100488.75;5562732;32;33829;-58
2023/06/29 06:51:33;;;;;;;5.72;2.80;;;;;;;22.37;54.33;100491.69;5557352;32;33268;-59
2023/06/29 06:54:36;;;;;;;3.80;2.67;;;;;;;22.44;54.55;100497.31;5562901;32;33714;-58
2023/06/29 06:57:38;;;;;;;6.22;3.10;;;;;;;22.44;52.25;100485.59;5568089;32;33686;-58
2023/06/29 07:00:40;;;;;;;4.53;3.22;;;;;;;22.25;52.01;100489.06;5560137;32;34232;-58
2023/06/29 07:03:44;;;;;;;6.65;3.08;;;;;;;22.28;52.74;100494.66;5552092;32;34317;-58
2023/06/29 07:06:47;;;;;;;6.45;3.17;;;;;;;22.29;52.41;100495.44;5568171;32;34266;-58
2023/06/29 07:09:50;;;;;;;5.45;2.85;;;;;;;22.49;52.71;100507.97;5567359;32;34369;-58
2023/06/29 07:12:52;;;;;;;8.57;2.95;;;;;;;22.30;52.66;100504.41;5565548;32;34223;-58
2023/06/29 07:15:55;;;;;;;4.53;2.67;;;;;;;22.40;52.60;100506.59;5566113;32;32981;-58
2023/06/29 07:19:03;;;;;;;5.43;3.00;;;;;;;22.45;56.01;100509.84;5567327;32;34014;-59
2023/06/29 07:22:25;;;;;;;4.35;2.70;;;;;;;22.57;54.42;100500.72;5548298;32;33184;-58
2023/06/29 07:25:30;;;;;;;3.53;2.87;;;;;;;22.58;55.00;100510.47;5560199;32;34247;-58
2023/06/29 07:28:33;;;;;;;5.37;2.67;;;;;;;22.65;51.81;100505.19;5564275;32;33671;-58
2023/06/29 07:31:35;;;;;;;6.32;3.10;;;;;;;22.72;52.36;100508.06;5564946;32;33601;-59
2023/06/29 07:34:38;;;;;;;5.75;2.97;;;;;;;22.85;52.29;100500.50;5565495;32;33653;-60
2023/06/29 07:37:40;;;;;;;4.00;2.53;;;;;;;22.78;57.63;100507.75;5567183;32;33559;-61
2023/06/29 07:40:42;;;;;;;4.45;2.67;;;;;;;22.82;53.20;100511.37;5567606;32;33605;-61
2023/06/29 07:43:57;;;;;;;6.25;3.37;;;;;;;22.82;53.08;100514.91;5565662;32;33628;-61
2023/06/29 07:46:59;;;;;;;4.40;2.78;;;;;;;22.73;53.74;100520.56;5567540;32;34333;-61
2023/06/29 07:50:02;;;;;;;5.87;3.40;;;;;;;22.59;52.51;100511.28;5567281;32;33179;-61
2023/06/29 07:53:04;;;;;;;3.72;2.60;;;;;;;22.88;58.50;100524.41;5567396;32;33599;-61
2023/06/29 07:56:08;;;;;;;7.78;2.80;;;;;;;22.66;51.88;100516.91;5567343;32;33240;-61
2023/06/29 07:59:10;;;;;;;5.22;2.40;;;;;;;22.82;53.31;100511.37;5567146;32;33610;-61
2023/06/29 08:02:13;;;;;;;5.07;2.90;;;;;;;22.84;52.36;100514.53;5567386;32;33324;-61
2023/06/29 08:05:16;;;;;;;4.07;2.65;;;;;;;22.89;55.73;100511.50;5566004;32;34245;-61
2023/06/29 08:08:21;;;;;;;6.30;2.83;;;;;;;22.62;51.33;100507.84;5552151;32;33864;-61
2023/06/29 08:11:24;;;;;;;4.28;2.75;;;;;;;22.72;52.25;100512.75;5547445;32;33718;-61
2023/06/29 08:14:26;;;;;;;3.15;2.37;;;;;;;22.72;52.84;100501.81;5550727;32;33231;-61
2023/06/29 08:17:29;;;;;;;3.45;2.60;;;;;;;22.88;54.98;100505.25;5564291;32;33115;-61
2023/06/29 08:20:32;;;;;;;7.03;2.72;;;;;;;23.01;53.01;100514.09;5547879;32;33388;-60
2023/06/29 08:23:36;;;;;;;4.12;2.78;;;;;;;22.89;51.44;100506.03;5564150;32;33289;-61
2023/06/29 08:26:38;;;;;;;4.18;2.37;;;;;;;22.96;52.51;100504.25;5550602;32;33734;-61
2023/06/29 08:29:40;;;;;;;5.72;2.20;;;;;;;23.01;53.00;100500.44;5551165;32;33584;-61
2023/06/29 08:32:43;;;;;;;5.32;2.50;;;;;;;23.04;52.45;100496.97;5547519;32;33267;-61
2023/06/29 08:35:46;;;;;;;4.70;2.20;;;;;;;;;;5558129;32;33536;-61
2023/06/29 08:38:48;;;;;;;2.67;2.37;;;;;;;23.20;51.55;100494.16;5566706;32;34348;-61
2023/06/29 08:41:51;;;;;;;4.03;2.40;;;;;;;23.26;51.23;100503.66;5566473;32;33596;-61
2023/06/29 08:44:54;;;;;;;6.22;2.53;;;;;;;23.23;51.52;100501.63;5565767;32;33686;-61
2023/06/29 08:47:57;;;;;;;3.40;2.20;;;;;;;23.26;51.81;100489.97;5566379;32;33300;-61
2023/06/29 08:51:07;;;;;;;4.53;2.33;;;;;;;23.31;52.21;100497.09;5566267;32;34267;-61
2023/06/29 08:54:12;;;;;;;3.80;2.53;;;;;;;23.34;50.62;100493.63;5566952;32;33850;-61
2023/06/29 08:57:14;;;;;;;4.82;2.50;;;;;;;23.37;51.16;100493.69;5567969;32;33862;-61
2023/06/29 09:00:18;;;;;;;5.45;2.78;;;;;;;23.61;52.58;100502.72;5567249;32;33695;-61
2023/06/29 09:03:22;;;;;;;4.35;2.60;;;;;;;23.68;49.96;100497.38;5568462;32;33164;-60
2023/06/29 09:06:26;;;;;;;3.90;2.33;;;;;;;23.63;50.59;100495.69;5563200;32;33210;-61
2023/06/29 09:09:32;;;;;;;4.18;2.50;;;;;;;23.52;50.73;100497.47;5567940;32;33684;-61
2023/06/29 09:12:36;;;;;;;6.30;2.78;;;;;;;23.50;49.69;100490.78;5569132;32;33418;-61
2023/06/29 09:15:40;;;;;;;6.50;2.50;;;;;;;23.61;50.45;100503.50;5563771;32;33729;-61
2023/06/29 09:18:48;;;;;;;4.62;2.40;;;;;;;23.76;51.83;100501.81;5568023;32;33571;-61
2023/06/29 09:21:51;;;;;;;5.62;2.70;;;;;;;23.90;48.79;100496.53;5568974;32;34386;-61
2023/06/29 09:24:58;;;;;;;4.50;2.55;;;;;;;23.85;50.20;100499.59;5567806;32;33742;-61
2023/06/29 09:28:12;;;;;;;5.95;3.05;;;;;;;23.77;47.67;100484.22;5569028;32;33701;-61
2023/06/29 09:31:14;;;;;;;4.03;2.47;;;;;;;23.76;48.04;100490.06;5566816;32;33608;-61
2023/06/29 09:34:21;;;;;;;6.95;2.70;;;;;;;23.70;49.26;100484.09;5568313;32;34418;-61
2023/06/29 09:37:25;;;;;;;5.72;2.87;;;;;;;23.85;49.79;100490.59;5568110;32;33602;-61
2023/06/29 09:40:28;;;;;;;5.78;2.72;;;;;;;23.88;47.05;100493.41;5568075;32;34398;-60
2023/06/29 09:43:30;;;;;;;6.00;2.70;;;;;;;23.85;46.72;100485.13;5566101;32;33620;-60
2023/06/29 09:46:35;;;;;;;4.78;2.60;;;;;;;23.91;50.39;100491.88;5565776;32;34464;-60
2023/06/29 09:49:47;;;;;;;;;;;;;;;23.94;47.56;100493.06;5567332;32;33729;-60
2023/06/29 09:52:51;;;;;;;5.75;2.97;;;;;;;23.92;47.87;100490.72;5568897;32;33947;-60
2023/06/29 09:56:00;;;;;;;4.60;2.62;;;;;;;24.00;48.93;100491.59;5568447;32;33172;-59
2023/06/29 09:59:03;;;;;;;4.65;2.67;;;;;;;23.89;47.41;100494.97;5568385;32;33661;-59
2023/06/29 10:02:08;;;;;;;4.55;2.75;;;;;;;23.72;47.91;100498.22;5568673;32;33523;-59
2023/06/29 10:05:11;;;;;;;8.17;2.93;;;;;;;23.71;48.26;100484.87;5568300;32;33680;-59
2023/06/29 10:08:16;;;;;;;5.45;2.87;;;;;;;23.82;51.26;100494.06;5568317;32;33394;-59
2023/06/29 10:11:20;;;;;;;6.03;2.67;;;;;;;24.01;48.35;100485.00;5567162;32;33734;-58
2023/06/29 10:14:22;;;;;;;5.05;2.75;;;;;;;24.21;46.89;100485.66;5568536;32;33748;-59
2023/06/29 10:17:35;;;;;;;6.72;3.03;;;;;;;24.14;49.97;100481.66;5564085;32;34334;-59
2023/06/29 10:20:43;;;;;;;3.40;2.60;;;;;;;24.21;49.76;100483.72;5567598;32;33721;-59
2023/06/29 10:23:48;;;;;;;8.38;2.72;;;;;;;24.09;49.76;100483.91;5568318;32;33678;-59
2023/06/29 10:26:51;;;;;;;4.72;2.80;;;;;;;23.90;49.85;100477.37;5567409;32;33699;-59
2023/06/29 10:29:54;;;;;;;5.80;2.72;;;;;;;23.80;49.97;100483.47;5562805;32;33250;-59
2023/06/29 10:32:57;;;;;;;6.45;2.90;;;;;;;23.72;49.80;100483.75;5566016;32;33859;-59
2023/06/29 10:36:02;;;;;;;5.80;2.60;;;;;;;23.70;48.67;100478.63;5564938;32;34434;-59
2023/06/29 10:39:43;;;;;;;5.00;2.37;;;;;;;23.80;48.93;100469.00;5564670;31;33633;-60
2023/06/29 10:42:46;;;;;;;3.50;2.70;;;;;;;24.13;48.64;100471.06;5559587;32;34098;-59
2023/06/29 10:45:48;;;;;;;10.02;2.92;;;;;;;24.26;46.56;100477.91;5560596;32;33730;-58
2023/06/29 10:49:00;;;;;;;7.45;2.40;;;;;;;24.27;47.83;100468.53;5562954;32;34328;-59
2023/06/29 10:52:04;;;;;;;6.93;2.80;;;;;;;24.35;48.85;100466.69;5564148;32;33313;-58
2023/06/29 10:55:22;;;;;;;4.68;2.67;;;;;;;24.29;47.40;100470.87;5566155;32;33765;-59
2023/06/29 10:58:28;;;;;;;3.28;2.28;;;;;;;24.40;47.52;100474.56;5557063;32;33647;-59
2023/06/29 11:01:31;;;;;;;3.17;2.22;;;;;;;24.45;45.98;100468.78;5562586;32;34241;-58
2023/06/29 11:04:34;;;;;;;4.55;2.80;;;;;;;24.43;46.68;100459.34;5557914;32;33674;-60
2023/06/29 11:07:38;;;;;;;4.55;2.60;;;;;;;24.51;47.39;100456.34;5563335;32;34037;-60
2023/06/29 11:10:40;;;;;;;5.20;2.85;;;;;;;24.51;45.64;100455.56;5563867;32;33654;-60
2023/06/29 11:13:43;;;;;;;5.00;2.35;;;;;;;24.56;45.92;100449.72;5564986;32;34403;-60
2023/06/29 11:16:47;;;;;;;3.25;2.47;;;;;;;24.64;45.33;100456.91;5567140;32;33336;-60
2023/06/29 11:19:50;;;;;;;2.90;2.60;;;;;;;24.66;45.29;100460.03;5567366;32;33297;-60
2023/06/29 11:22:52;;;;;;;3.67;2.40;;;;;;;24.52;45.39;100454.37;5567018;32;34305;-60
2023/06/29 11:25:59;;;;;;;3.72;2.50;;;;;;;24.47;44.80;100458.25;5567324;32;34349;-60
2023/06/29 11:29:05;;;;;;;6.62;2.70;;;;;;;24.53;46.32;100469.66;5567413;32;33757;-60
2023/06/29 11:32:18;;;;;;;3.87;2.40;;;;;;;24.71;45.93;100443.25;5568004;32;34210;-60
2023/06/29 11:35:22;;;;;;;3.37;2.40;;;;;;;24.68;45.76;100454.19;5567281;32;33589;-60
2023/06/29 11:38:24;;;;;;;4.20;2.30;;;;;;;24.65;46.16;100452.19;5566407;31;33594;-60
2023/06/29 11:41:30;;;;;;;5.60;2.28;;;;;;;24.78;45.60;100448.03;5566159;32;33845;-60
2023/06/29 11:44:33;;;;;;;3.72;2.37;;;;;;;24.65;45.80;100447.50;5563962;32;33713;-60
2023/06/29 11:47:36;;;;;;;3.87;2.60;;;;;;;24.51;45.60;100455.56;5565898;32;33825;-59
2023/06/29 11:50:40;;;;;;;3.72;2.40;;;;;;;24.59;45.73;100449.78;5563417;32;34388;-60
2023/06/29 11:53:42;;;;;;;6.50;2.75;;;;;;;24.68;45.96;100445.97;5562237;32;33606;-60
2023/06/29 11:56:45;;;;;;;3.20;2.30;;;;;;;24.89;45.38;100440.69;5563696;32;32120;-60
2023/06/29 11:59:48;;;;;;;10.10;2.83;;;;;;;25.04;43.34;100436.16;5563108;32;33491;-60
2023/06/29 12:02:50;;;;;;;3.40;2.40;;;;;;;25.03;43.60;100442.81;5563100;32;34403;-60
2023/06/29 12:05:53;;;;;;;3.53;2.35;;;;;;;24.93;43.73;100438.78;5562027;32;34398;-60
2023/06/29 12:08:55;;;;;;;5.00;2.40;;;;;;;24.88;45.00;100430.91;5560904;32;33665;-60
2023/06/29 12:11:59;;;;;;;3.75;2.75;;;;;;;24.86;45.61;100430.50;5559185;32;33292;-60
2023/06/29 12:15:19;;;;;;;3.37;2.30;;;;;;;24.83;45.70;100434.78;5560069;32;33707;-59
2023/06/29 12:18:23;;;;;;;3.60;2.58;;;;;;;24.77;44.37;100428.06;5565568;32;34426;-58
2023/06/29 12:21:26;;;;;;;5.05;2.75;;;;;;;24.82;45.83;100433.19;5560571;32;34446;-58
2023/06/29 12:24:29;;;;;;;3.10;2.40;;;;;;;24.90;44.67;100420.37;5562927;32;33689;-59
2023/06/29 12:27:33;;;;;;;3.67;2.78;;;;;;;25.01;44.66;100413.03;5565335;32;33274;-58
2023/06/29 12:30:36;;;;;;;2.90;2.33;;;;;;;25.00;45.13;100410.63;5566082;32;33762;-58
2023/06/29 12:33:38;;;;;;;4.20;2.67;;;;;;;25.02;43.37;100406.37;5568928;32;34056;-58
2023/06/29 12:36:40;;;;;;;3.58;2.53;;;;;;;25.06;44.53;100406.37;5566979;32;34275;-58
2023/06/29 12:39:43;;;;;;;3.78;2.30;;;;;;;25.01;45.36;100401.25;5561713;32;34398;-58
2023/06/29 12:42:45;;;;;;;3.55;2.67;;;;;;;25.12;47.10;100404.91;5559530;32;33599;-58
2023/06/29 12:45:48;;;;;;;3.72;2.58;;;;;;;25.16;42.11;100402.97;5560033;32;34210;-58
2023/06/29 12:48:51;;;;;;;3.58;2.90;;;;;;;25.22;43.94;100398.72;5559962;32;33813;-59
2023/06/29 12:51:53;;;;;;;3.58;2.67;;;;;;;25.33;43.78;100393.34;5562731;32;34142;-58
2023/06/29 12:54:55;;;;;;;3.30;2.50;;;;;;;25.39;43.21;100400.03;5549860;32;33219;-58
2023/06/29 12:57:57;;;;;;;4.60;2.60;;;;;;;25.31;43.06;100399.22;5552710;32;34315;-58
2023/06/29 13:01:01;;;;;;;3.35;2.50;;;;;;;25.29;43.87;100387.81;5568820;32;33645;-58
2023/06/29 13:04:04;;;;;;;4.43;2.40;;;;;;;25.36;43.01;100389.81;5568369;32;33429;-58
2023/06/29 13:07:07;;;;;;;3.20;2.20;;;;;;;25.49;42.37;100390.31;5569498;32;33698;-59
2023/06/29 13:10:11;;;;;;;5.82;3.08;;;;;;;25.48;42.33;100386.00;5568741;32;33722;-59
2023/06/29 13:13:14;;;;;;;5.82;2.70;;;;;;;25.49;42.00;100384.81;5567970;32;33614;-58
2023/06/29 13:16:16;;;;;;;5.93;2.70;;;;;;;25.49;41.83;100382.87;5569386;32;33617;-58
2023/06/29 13:19:19;;;;;;;8.68;2.60;;;;;;;25.52;41.93;100381.31;5569454;32;33307;-58
2023/06/29 13:22:22;;;;;;;3.92;2.25;;;;;;;25.47;42.52;100376.19;5569341;32;34540;-58
2023/06/29 13:25:25;;;;;;;4.85;2.60;;;;;;;25.33;47.34;100370.59;5569069;32;33654;-59
2023/06/29 13:28:30;;;;;;;4.12;2.08;;;;;;;25.21;42.77;100375.22;5566162;32;32789;-59
2023/06/29 13:31:36;;;;;;;4.62;2.40;;;;;;;25.41;42.67;100369.50;5567334;31;31453;-60
2023/06/29 13:34:38;;;;;;;6.57;2.70;;;;;;;25.46;42.67;100358.13;5568996;32;34367;-59
2023/06/29 13:37:41;;;;;;;5.30;2.40;;;;;;;25.66;40.99;100362.22;5568581;32;34438;-59
2023/06/29 13:40:43;;;;;;;3.35;2.30;;;;;;;25.63;42.27;100365.72;5568792;32;33756;-60
2023/06/29 13:43:46;;;;;;;5.55;2.60;;;;;;;25.63;41.05;100362.97;5569070;32;34293;-60
2023/06/29 13:46:48;;;;;;;3.95;2.37;;;;;;;25.66;42.40;100358.66;5569348;32;34070;-60
2023/06/29 13:49:51;;;;;;;3.65;2.70;;;;;;;25.73;40.59;100359.50;5568895;32;33609;-58
2023/06/29 13:52:54;;;;;;;18.10;3.15;;;;;;;25.78;41.25;100356.38;5569247;32;33660;-60
2023/06/29 13:55:56;;;;;;;2.40;2.20;;;;;;;25.87;42.37;100355.28;5568850;32;33989;-59
2023/06/29 13:59:03;;;;;;;5.68;2.50;;;;;;;25.89;41.10;100344.69;5568751;32;33231;-59
2023/06/29 14:02:06;;;;;;;4.10;2.67;;;;;;;26.02;39.76;100354.97;5568920;32;33202;-59
2023/06/29 14:05:09;;;;;;;15.23;2.97;;;;;;;26.01;40.66;100347.91;5568525;32;33735;-60
2023/06/29 14:08:11;;;;;;;15.20;2.62;;;;;;;26.00;43.78;100337.31;5566395;32;34853;-60
2023/06/29 14:11:14;;;;;;;2.97;2.40;;;;;;;25.97;41.67;100344.34;5568140;32;33648;-59
2023/06/29 14:14:16;;;;;;;3.50;2.30;;;;;;;25.97;40.64;100332.59;5568451;32;34231;-59
2023/06/29 14:17:19;;;;;;;8.85;2.58;;;;;;;25.97;41.12;100333.38;5567851;32;33651;-60
2023/06/29 14:20:21;;;;;;;4.35;2.40;;;;;;;25.88;42.37;100332.16;5566817;32;33767;-59
2023/06/29 14:23:24;;;;;;;6.18;2.78;;;;;;;25.86;40.68;100334.47;5563315;32;33710;-59
2023/06/29 14:26:26;;;;;;;5.72;2.87;;;;;;;26.01;40.60;100325.13;5568193;32;33984;-59
2023/06/29 14:29:29;;;;;;;4.10;2.53;;;;;;;26.05;40.88;100325.16;5568921;32;33325;-59
2023/06/29 14:32:31;;;;;;;3.08;2.50;;;;;;;26.02;41.19;100326.69;5565378;32;33679;-59
2023/06/29 14:35:34;;;;;;;3.12;2.50;;;;;;;26.01;40.42;100311.41;5568975;32;33620;-57
2023/06/29 14:38:36;;;;;;;3.22;2.47;;;;;;;25.99;40.57;100320.03;5568834;32;34434;-57
2023/06/29 14:41:54;;;;;;;6.82;2.80;;;;;;;26.01;40.79;100319.66;5568803;32;33635;-59
2023/06/29 14:44:56;;;;;;;3.53;2.33;;;;;;;26.12;40.81;100314.19;5569175;32;34347;-58
2023/06/29 14:47:58;;;;;;;3.80;2.80;;;;;;;26.14;39.70;100309.09;5568793;32;33880;-58
2023/06/29 14:51:00;;;;;;;7.03;2.40;;;;;;;26.21;40.05;100320.09;5568973;32;33668;-58
2023/06/29 14:54:03;;;;;;;3.70;2.70;;;;;;;26.22;42.36;100308.75;5567546;32;33707;-58
2023/06/29 14:57:05;;;;;;;3.10;2.40;;;;;;;26.22;40.31;100317.00;5568044;32;33218;-58
